Time;durP1;ratioP1;P1;durP2;ratioP2;P2;SDS_P1;SDS_P2;PMS_P1;PMS_P2;Temp;Humidity;BMP_temperature;BMP_pressure;BME280_temperature;BME280_humidity;BME280_pressure;Samples;Min_cycle;Max_cycle;Signal;HPM_P1;HPM_P2
2022/06/05 00:00:00;;;;;;;27.23;24.40;;;18.60;99.90;;;;;;5035928;28;20203;-82
2022/06/05 00:02:34;;;;;;;27.77;24.83;;;18.50;99.90;;;;;;5035769;28;20214;-82
2022/06/05 00:05:08;;;;;;;30.07;23.07;;;18.40;99.90;;;;;;5035662;28;20203;-82
2022/06/05 00:07:44;;;;;;;35.63;25.83;;;18.30;99.90;;;;;;5034797;28;20210;-82
2022/06/05 00:10:17;;;;;;;33.27;24.17;;;18.40;99.90;;;;;;5035477;28;20234;-83
2022/06/05 00:12:53;;;;;;;30.63;26.85;;;18.30;99.90;;;;;;5034628;28;20784;-83
2022/06/05 00:15:20;;;;;;;32.07;24.77;;;18.30;99.90;;;;;;5035839;28;20201;-82
2022/06/05 00:17:46;;;;;;;36.67;23.77;;;18.30;99.90;;;;;;5035923;28;20275;-82
2022/06/05 00:20:14;;;;;;;32.17;24.47;;;18.30;99.90;;;;;;5035261;28;20291;-83
2022/06/05 00:22:42;;;;;;;36.83;25.10;;;18.40;99.90;;;;;;5035850;28;20191;-83
2022/06/05 00:25:11;;;;;;;34.40;26.23;;;18.40;99.90;;;;;;5034830;28;20215;-83
2022/06/05 00:27:46;;;;;;;32.63;25.03;;;18.60;99.90;;;;;;5035127;28;20206;-83
2022/06/05 00:30:21;;;;;;;28.55;23.17;;;18.70;99.90;;;;;;5035180;28;20782;-82
2022/06/05 00:32:55;;;;;;;26.57;22.60;;;18.50;99.90;;;;;;5035472;28;20210;-82
2022/06/05 00:35:22;;;;;;;26.40;23.57;;;18.50;99.90;;;;;;5033916;28;20226;-83
2022/06/05 00:38:01;;;;;;;24.60;22.20;;;18.70;99.90;;;;;;5034877;28;20205;-82
2022/06/05 00:40:44;;;;;;;23.30;21.10;;;18.70;99.90;;;;;;5035538;28;20242;-83
2022/06/05 00:43:15;;;;;;;23.13;20.93;;;18.70;99.90;;;;;;5035062;28;20196;-82
2022/06/05 00:45:44;;;;;;;24.00;21.87;;;18.70;99.90;;;;;;5035238;28;20286;-83
2022/06/05 00:48:12;;;;;;;23.10;20.77;;;18.60;99.90;;;;;;5035122;28;20204;-83
2022/06/05 00:50:41;;;;;;;25.73;23.52;;;18.60;99.90;;;;;;5033902;28;20810;-82
2022/06/05 00:53:11;;;;;;;22.67;20.67;;;18.70;99.90;;;;;;5032687;28;20226;-82
2022/06/05 00:55:41;;;;;;;23.90;21.70;;;18.70;99.90;;;;;;5014272;28;20574;-83
2022/06/05 00:58:09;;;;;;;22.70;20.57;;;18.80;99.90;;;;;;5014212;28;20224;-82
2022/06/05 01:00:38;;;;;;;22.47;20.43;;;18.80;99.90;;;;;;5015272;28;20211;-82
2022/06/05 01:03:09;;;;;;;22.97;21.07;;;18.70;99.90;;;;;;5014218;28;20206;-81
2022/06/05 01:05:36;;;;;;;23.57;21.43;;;18.60;99.90;;;;;;5014791;28;20214;-82
2022/06/05 01:08:04;;;;;;;22.90;20.70;;;18.60;99.90;;;;;;5014872;28;20296;-82
2022/06/05 01:10:42;;;;;;;22.90;20.80;;;18.60;99.90;;;;;;5014821;28;20240;-83
2022/06/05 01:13:23;;;;;;;23.87;21.57;;;18.50;99.90;;;;;;5014888;28;20208;-83
2022/06/05 01:15:57;;;;;;;22.53;20.53;;;18.40;99.90;;;;;;5015110;28;20213;-83
2022/06/05 01:18:34;;;;;;;27.70;22.30;;;18.50;99.90;;;;;;5014649;28;20534;-83
2022/06/05 01:21:11;;;;;;;29.00;22.87;;;18.50;99.90;;;;;;5014479;28;20211;-83
2022/06/05 01:23:58;;;;;;;27.53;22.87;;;18.40;99.90;;;;;;5014782;28;20204;-83
2022/06/05 01:26:31;;;;;;;26.30;22.60;;;18.40;99.90;;;;;;5014992;28;20215;-83
2022/06/05 01:29:05;;;;;;;28.08;25.10;;;18.30;99.90;;;;;;5013086;28;20441;-82
2022/06/05 01:31:37;;;;;;;26.10;21.47;;;18.50;99.90;;;;;;5014294;28;20235;-83
2022/06/05 01:34:18;;;;;;;24.57;22.20;;;18.40;99.90;;;;;;5014379;28;20226;-83
2022/06/05 01:36:53;;;;;;;22.20;20.27;;;18.50;99.90;;;;;;5014646;28;20230;-83
2022/06/05 01:39:24;;;;;;;22.80;20.73;;;18.70;99.90;;;;;;5014830;28;20612;-83
2022/06/05 01:41:57;;;;;;;23.60;21.40;;;18.50;99.90;;;;;;5014944;28;20193;-83
2022/06/05 01:44:38;;;;;;;25.83;23.13;;;18.40;99.90;;;;;;5014484;28;20208;-83
2022/06/05 01:47:09;;;;;;;31.90;27.58;;;18.40;99.90;;;;;;5013055;28;20436;-82
2022/06/05 01:49:41;;;;;;;29.50;25.77;;;18.60;99.90;;;;;;5014596;28;20220;-83
2022/06/05 01:52:15;;;;;;;29.17;23.57;;;18.50;99.90;;;;;;5015020;28;20200;-83
2022/06/05 01:54:48;;;;;;;35.07;24.87;;;18.20;99.90;;;;;;5014147;28;20195;-83
2022/06/05 01:57:21;;;;;;;30.83;24.63;;;18.20;99.90;;;;;;5014137;28;20208;-82
2022/06/05 01:59:51;;;;;;;30.20;23.53;;;18.40;99.90;;;;;;5014429;28;20199;-84
2022/06/05 02:02:23;;;;;;;29.53;23.50;;;18.20;99.90;;;;;;5013880;28;20244;-83
2022/06/05 02:04:54;;;;;;;33.47;23.83;;;18.20;99.90;;;;;;5014012;28;20203;-83
2022/06/05 02:07:25;;;;;;;32.80;24.60;;;18.20;99.90;;;;;;5013535;28;20655;-83
2022/06/05 02:09:56;;;;;;;34.23;24.47;;;18.20;99.90;;;;;;5013811;28;20232;-83
2022/06/05 02:12:24;;;;;;;27.60;22.43;;;18.20;99.90;;;;;;5013713;28;20271;-83
2022/06/05 02:14:53;;;;;;;25.40;22.43;;;18.20;99.90;;;;;;5013879;28;20196;-83
2022/06/05 02:17:20;;;;;;;25.97;21.57;;;18.20;99.90;;;;;;5013536;28;20194;-83
2022/06/05 02:19:48;;;;;;;24.73;22.23;;;18.30;99.90;;;;;;5013683;28;20206;-83
2022/06/05 02:22:21;;;;;;;24.47;21.97;;;18.30;99.90;;;;;;5013499;28;20197;-83
2022/06/05 02:24:48;;;;;;;25.47;22.17;;;18.20;99.90;;;;;;5013821;28;20194;-83
2022/06/05 02:27:20;;;;;;;24.53;22.03;;;18.30;99.90;;;;;;4996423;28;20207;-82
2022/06/05 02:29:50;;;;;;;22.83;20.47;;;18.10;99.90;;;;;;5013215;28;20670;-83
2022/06/05 02:32:46;;;;;;;23.30;21.20;;;18.10;99.90;;;;;;5013231;28;20691;-82
2022/06/05 02:35:23;;;;;;;21.67;19.67;;;18.20;99.90;;;;;;5013809;28;20237;-83
2022/06/05 02:38:01;;;;;;;21.93;19.93;;;18.30;99.90;;;;;;5013224;28;20203;-83
2022/06/05 02:40:35;;;;;;;22.37;20.23;;;18.20;99.90;;;;;;5013765;28;20211;-83
2022/06/05 02:43:13;;;;;;;21.77;19.73;;;18.20;99.90;;;;;;5013369;28;20272;-83
2022/06/05 02:45:52;;;;;;;21.77;19.63;;;18.20;99.90;;;;;;5013160;28;20203;-83
2022/06/05 02:48:27;;;;;;;21.20;19.30;;;18.00;99.90;;;;;;5013176;28;20254;-81
2022/06/05 02:51:01;;;;;;;25.00;22.80;;;18.30;99.90;;;;;;5013377;28;20226;-83
2022/06/05 02:53:28;;;;;;;20.67;18.73;;;18.20;99.90;;;;;;5013543;28;20663;-83
2022/06/05 02:55:56;;;;;;;21.07;19.27;;;18.30;99.90;;;;;;5013304;28;20196;-83
2022/06/05 02:58:23;;;;;;;20.57;18.87;;;18.40;99.90;;;;;;4995921;28;20208;-82
2022/06/05 03:03:36;;;;;;;23.70;21.40;;;18.10;99.90;;;;;;5016344;28;20431;-84
2022/06/05 03:06:03;;;;;;;20.37;18.20;;;18.00;99.90;;;;;;5016966;28;20674;-83
2022/06/05 03:08:30;;;;;;;19.47;17.77;;;18.10;99.90;;;;;;5017002;28;20643;-83
2022/06/05 03:10:57;;;;;;;19.50;17.73;;;18.10;99.90;;;;;;5017224;28;20271;-84
2022/06/05 03:13:24;;;;;;;18.03;16.53;;;18.20;99.90;;;;;;5017376;28;20280;-83
2022/06/05 03:15:53;;;;;;;18.70;17.07;;;18.10;99.90;;;;;;5016596;28;20215;-83
2022/06/05 03:18:20;;;;;;;18.77;17.00;;;18.00;99.90;;;;;;5016524;28;20274;-84
2022/06/05 03:20:47;;;;;;;19.13;17.40;;;18.10;99.90;;;;;;5016960;28;20677;-84
2022/06/05 03:23:14;;;;;;;19.40;17.60;;;18.10;99.90;;;;;;5016650;28;20636;-84
2022/06/05 03:25:43;;;;;;;18.07;16.37;;;18.10;99.90;;;;;;5016727;28;20641;-84
2022/06/05 03:28:11;;;;;;;18.33;16.53;;;18.00;99.90;;;;;;5017069;28;20212;-83
2022/06/05 03:30:39;;;;;;;18.67;17.07;;;18.00;99.90;;;;;;5016438;28;20224;-84
2022/06/05 03:33:08;;;;;;;17.77;15.90;;;18.10;99.90;;;;;;5016523;28;20636;-84
2022/06/05 03:35:42;;;;;;;16.80;15.33;;;18.20;99.90;;;;;;5016676;28;20228;-84
2022/06/05 03:38:10;;;;;;;17.83;16.13;;;18.20;99.90;;;;;;5016597;28;20568;-83
2022/06/05 03:40:41;;;;;;;17.80;15.93;;;18.20;99.90;;;;;;5016449;28;20220;-83
2022/06/05 03:43:08;;;;;;;16.97;15.57;;;18.10;99.90;;;;;;5016279;28;20571;-82
2022/06/05 03:45:34;;;;;;;17.23;15.70;;;18.00;99.90;;;;;;5016372;28;20203;-82
2022/06/05 03:48:02;;;;;;;17.03;15.47;;;18.00;99.90;;;;;;5016197;28;20222;-82
2022/06/05 03:50:31;;;;;;;17.07;15.37;;;18.00;99.90;;;;;;5016037;28;20230;-83
2022/06/05 03:52:58;;;;;;;17.43;15.57;;;18.00;99.90;;;;;;5016419;28;20207;-82
2022/06/05 03:55:25;;;;;;;16.27;14.77;;;18.10;99.90;;;;;;5016085;28;20299;-81
2022/06/05 03:57:53;;;;;;;18.13;16.20;;;18.10;99.90;;;;;;5016003;28;20276;-82
2022/06/05 04:00:22;;;;;;;16.60;15.07;;;18.10;99.90;;;;;;5016294;28;20200;-82
2022/06/05 04:02:50;;;;;;;16.90;15.30;;;18.10;99.90;;;;;;5016535;28;20194;-84
2022/06/05 04:05:19;;;;;;;16.77;15.23;;;18.10;99.90;;;;;;5016998;28;20203;-82
2022/06/05 04:07:48;;;;;;;16.40;14.90;;;18.00;99.90;;;;;;5018119;28;20208;-84
2022/06/05 04:10:16;;;;;;;16.63;15.07;;;18.00;99.90;;;;;;5017031;28;20568;-83
2022/06/05 04:12:44;;;;;;;16.50;14.53;;;18.10;99.90;;;;;;5017023;28;20208;-83
2022/06/05 04:15:12;;;;;;;15.90;14.53;;;18.10;99.90;;;;;;5018295;28;20608;-83
2022/06/05 04:17:39;;;;;;;15.63;14.27;;;18.20;99.90;;;;;;5017643;28;20238;-84
2022/06/05 04:20:12;;;;;;;16.17;14.60;;;18.10;99.90;;;;;;5017575;28;20210;-84
2022/06/05 04:22:41;;;;;;;17.63;13.77;;;18.30;99.90;;;;;;5016122;28;20580;-83
2022/06/05 04:25:14;;;;;;;16.97;15.17;;;18.20;99.90;;;;;;5015744;28;20212;-83
2022/06/05 04:27:41;;;;;;;14.97;13.73;;;18.20;99.90;;;;;;5015664;28;20204;-83
2022/06/05 04:30:09;;;;;;;15.47;13.90;;;18.20;99.90;;;;;;5016044;28;20208;-84
2022/06/05 04:32:36;;;;;;;15.30;13.90;;;18.20;99.90;;;;;;5015633;28;20654;-84
2022/06/05 04:35:03;;;;;;;13.90;12.80;;;18.30;99.90;;;;;;5015477;28;20251;-83
2022/06/05 04:37:30;;;;;;;14.57;13.30;;;18.10;99.90;;;;;;5016042;28;20203;-83
2022/06/05 04:39:57;;;;;;;15.80;13.73;;;18.20;99.90;;;;;;4998735;28;20210;-85
2022/06/05 04:42:25;;;;;;;15.63;13.97;;;18.40;99.90;;;;;;5015917;28;20287;-83
2022/06/05 04:44:53;;;;;;;14.83;13.40;;;18.50;99.90;;;;;;5015512;28;20227;-82
2022/06/05 04:47:20;;;;;;;15.63;13.87;;;18.60;99.90;;;;;;5015709;28;20204;-83
2022/06/05 04:49:47;;;;;;;15.57;13.07;;;18.50;99.90;;;;;;5016384;28;20640;-83
2022/06/05 04:52:15;;;;;;;14.60;13.30;;;18.30;99.90;;;;;;5016087;28;20227;-81
2022/06/05 04:54:42;;;;;;;14.73;12.40;;;18.10;99.90;;;;;;5016218;28;20215;-83
2022/06/05 04:57:09;;;;;;;15.48;14.00;;;18.20;99.90;;;;;;5014327;28;20436;-83
2022/06/05 04:59:37;;;;;;;15.20;13.80;;;18.30;99.90;;;;;;5015257;28;20275;-83
2022/06/05 05:02:05;;;;;;;15.43;13.13;;;18.30;99.90;;;;;;5015657;28;20214;-83
2022/06/05 05:04:31;;;;;;;13.40;12.13;;;18.20;99.90;;;;;;5014348;28;20201;-83
2022/06/05 05:06:58;;;;;;;14.47;12.97;;;18.30;99.90;;;;;;5012977;28;20300;-83
2022/06/05 05:09:26;;;;;;;13.77;12.67;;;18.10;99.90;;;;;;5015623;28;20232;-83
2022/06/05 05:11:53;;;;;;;13.97;12.53;;;18.00;99.90;;;;;;5015515;28;20230;-83
2022/06/05 05:14:20;;;;;;;13.83;12.57;;;18.00;99.90;;;;;;5014461;28;20189;-83
2022/06/05 05:16:48;;;;;;;14.40;13.10;;;18.10;99.90;;;;;;5014969;28;20203;-83
2022/06/05 05:19:15;;;;;;;14.53;12.73;;;18.10;99.90;;;;;;5014653;28;20205;-84
2022/06/05 05:21:44;;;;;;;13.90;12.60;;;18.10;99.90;;;;;;5015312;28;20212;-82
2022/06/05 05:24:11;;;;;;;14.43;12.70;;;18.10;99.90;;;;;;5015064;28;20208;-83
2022/06/05 05:26:38;;;;;;;14.40;13.03;;;18.30;99.90;;;;;;5014357;28;20579;-83
2022/06/05 05:29:06;;;;;;;14.30;12.90;;;18.50;99.90;;;;;;5014015;28;20196;-82
2022/06/05 05:31:35;;;;;;;14.20;12.90;;;18.70;99.90;;;;;;5014488;28;20232;-82
2022/06/05 05:34:03;;;;;;;13.80;12.53;;;18.50;99.90;;;;;;5014446;28;20207;-82
2022/06/05 05:36:30;;;;;;;13.77;12.53;;;18.30;99.90;;;;;;5014524;28;20239;-82
2022/06/05 05:44:28;;;;;;;14.83;13.37;;;18.80;99.90;;;;;;5014454;28;20204;-83
2022/06/05 05:46:56;;;;;;;14.53;13.13;;;18.80;99.90;;;;;;5014331;28;20206;-83
2022/06/05 05:49:24;;;;;;;13.30;12.10;;;18.90;99.90;;;;;;5014416;28;20199;-83
2022/06/05 05:51:51;;;;;;;14.20;12.70;;;19.00;99.90;;;;;;5014324;28;20225;-82
2022/06/05 05:54:19;;;;;;;15.27;13.75;;;18.80;99.90;;;;;;5013315;28;20443;-83
2022/06/05 05:56:46;;;;;;;14.30;13.00;;;19.10;99.90;;;;;;5014437;28;20193;-83
2022/06/05 05:59:13;;;;;;;13.83;12.73;;;19.30;99.90;;;;;;5013932;28;20202;-83
2022/06/05 06:01:40;;;;;;;14.87;13.50;;;19.40;99.90;;;;;;5013916;28;20206;-81
2022/06/05 06:04:07;;;;;;;14.07;12.73;;;19.10;99.90;;;;;;5014040;28;20211;-84
2022/06/05 06:06:37;;;;;;;12.90;11.57;;;18.90;99.90;;;;;;5013465;28;20219;-83
2022/06/05 06:09:04;;;;;;;14.50;12.43;;;18.80;99.90;;;;;;5013572;28;20645;-83
2022/06/05 06:11:31;;;;;;;14.33;12.93;;;18.70;99.90;;;;;;5013988;28;20708;-83
2022/06/05 06:14:00;;;;;;;16.23;14.82;;;18.80;99.90;;;;;;5012743;28;20432;-83
2022/06/05 06:16:33;;;;;;;14.60;13.40;;;18.80;99.90;;;;;;5014236;28;20208;-83
2022/06/05 06:19:00;;;;;;;14.03;12.53;;;18.80;99.90;;;;;;5013690;28;20190;-83
2022/06/05 06:21:27;;;;;;;14.33;12.97;;;18.90;99.90;;;;;;5013737;28;20212;-83
2022/06/05 06:23:55;;;;;;;14.73;13.37;;;18.80;99.90;;;;;;5013180;28;20641;-84
2022/06/05 06:26:24;;;;;;;15.83;14.00;;;18.90;99.90;;;;;;5014156;28;20211;-84
2022/06/05 06:28:51;;;;;;;15.47;13.37;;;18.60;99.90;;;;;;5014032;28;20192;-85
2022/06/05 06:31:18;;;;;;;15.98;14.55;;;18.50;99.90;;;;;;5013584;28;20089;-85
2022/06/05 06:33:48;;;;;;;16.47;14.73;;;18.30;99.90;;;;;;5012933;28;20723;-84
2022/06/05 06:36:17;;;;;;;15.10;13.70;;;18.30;99.90;;;;;;5013478;28;20311;-85
2022/06/05 06:38:43;;;;;;;15.73;14.17;;;18.40;99.90;;;;;;5013831;28;20214;-83
2022/06/05 06:41:14;;;;;;;16.27;14.97;;;18.50;99.90;;;;;;5013955;28;20560;-84
2022/06/05 06:43:43;;;;;;;17.97;16.40;;;18.40;99.90;;;;;;5013556;28;20204;-84
2022/06/05 06:46:11;;;;;;;17.97;16.47;;;18.50;99.90;;;;;;5013665;28;20648;-84
2022/06/05 06:48:38;;;;;;;20.73;18.93;;;18.40;99.90;;;;;;5013301;28;20663;-84
2022/06/05 06:51:06;;;;;;;19.77;18.03;;;18.40;99.90;;;;;;5013674;28;20213;-84
2022/06/05 06:53:34;;;;;;;20.40;18.20;;;18.50;99.90;;;;;;5013790;28;20207;-84
2022/06/05 06:56:08;;;;;;;20.00;18.03;;;18.60;99.90;;;;;;5013945;28;20195;-84
2022/06/05 06:58:36;;;;;;;20.40;18.50;;;18.60;99.90;;;;;;5013033;28;20254;-83
2022/06/05 07:01:03;;;;;;;19.53;17.83;;;18.60;99.90;;;;;;5013304;28;20208;-84
2022/06/05 07:03:30;;;;;;;20.50;18.60;;;18.60;99.90;;;;;;5013498;28;20212;-83
2022/06/05 07:05:57;;;;;;;20.50;18.67;;;18.70;99.90;;;;;;5013469;28;20209;-84
2022/06/05 07:08:24;;;;;;;20.17;18.47;;;18.70;99.90;;;;;;5013212;28;20230;-85
2022/06/05 07:10:52;;;;;;;22.35;20.27;;;18.90;99.90;;;;;;5012376;28;20448;-84
2022/06/05 07:13:19;;;;;;;21.73;19.43;;;19.00;99.90;;;;;;5012919;28;20220;-82
2022/06/05 07:15:47;;;;;;;21.77;20.00;;;19.10;99.90;;;;;;5013190;28;20200;-82
2022/06/05 07:18:14;;;;;;;22.90;20.83;;;19.10;99.90;;;;;;5013130;28;20207;-83
2022/06/05 07:20:43;;;;;;;23.33;21.07;;;19.10;99.90;;;;;;5012995;28;20203;-84
2022/06/05 07:23:12;;;;;;;20.83;18.83;;;19.10;99.90;;;;;;5013578;28;20196;-83
2022/06/05 07:25:46;;;;;;;21.50;19.70;;;19.00;99.90;;;;;;5025318;28;20196;-80
2022/06/05 07:28:13;;;;;;;21.77;19.90;;;19.20;99.90;;;;;;5029893;28;20195;-83
2022/06/05 07:30:40;;;;;;;21.17;19.47;;;19.20;99.90;;;;;;5032807;28;20667;-84
2022/06/05 07:33:10;;;;;;;20.57;18.87;;;19.40;99.90;;;;;;5033387;28;20216;-86
2022/06/05 07:35:37;;;;;;;21.17;19.23;;;19.60;99.90;;;;;;5032854;28;20222;-84
2022/06/05 07:38:05;;;;;;;19.67;17.97;;;19.90;99.90;;;;;;5033503;28;20208;-86
2022/06/05 07:40:37;;;;;;;20.73;18.93;;;19.80;99.90;;;;;;5033268;28;20659;-83
2022/06/05 07:43:09;;;;;;;19.83;18.00;;;19.70;99.90;;;;;;5033087;28;20195;-86
2022/06/05 07:45:37;;;;;;;20.20;18.00;;;19.80;99.90;;;;;;5034918;28;20252;-84
2022/06/05 07:48:05;;;;;;;19.30;17.47;;;19.80;99.90;;;;;;5036687;28;20229;-84
2022/06/05 07:50:33;;;;;;;21.47;19.87;;;19.80;99.90;;;;;;5035986;28;20462;-87
2022/06/05 07:55:51;;;;;;;19.60;17.87;;;20.20;99.90;;;;;;5037135;28;20563;-83
2022/06/05 07:58:18;;;;;;;19.43;17.60;;;20.40;99.90;;;;;;5036528;28;20187;-82
2022/06/05 08:00:44;;;;;;;16.93;15.43;;;20.40;99.90;;;;;;5036748;28;20215;-84
2022/06/05 08:03:13;;;;;;;16.37;14.97;;;20.50;99.90;;;;;;5036596;28;20203;-86
2022/06/05 08:05:42;;;;;;;17.17;15.67;;;20.60;99.90;;;;;;5035093;28;20206;-86
2022/06/05 08:08:08;;;;;;;16.30;14.80;;;20.80;99.90;;;;;;5036105;28;20202;-86
2022/06/05 08:10:35;;;;;;;15.47;14.27;;;20.80;99.90;;;;;;5035729;28;20203;-86
2022/06/05 08:13:04;;;;;;;16.03;14.63;;;21.00;99.90;;;;;;5035551;28;20285;-87
2022/06/05 08:15:31;;;;;;;17.60;16.10;;;21.40;99.90;;;;;;5035783;28;20208;-86
2022/06/05 08:17:57;;;;;;;15.67;14.27;;;21.80;99.90;;;;;;5035875;28;20209;-88
2022/06/05 08:20:30;;;;;;;15.80;14.30;;;21.90;99.90;;;;;;5036578;28;20207;-87
2022/06/05 08:22:58;;;;;;;15.23;13.93;;;21.90;99.90;;;;;;5037891;28;20215;-84
2022/06/05 08:25:25;;;;;;;15.87;14.47;;;21.90;99.90;;;;;;5036939;28;20198;-87
2022/06/05 08:27:52;;;;;;;17.10;15.57;;;21.80;99.90;;;;;;5035433;28;20441;-87
2022/06/05 08:30:19;;;;;;;24.27;17.73;;;22.10;99.90;;;;;;5035624;28;20562;-87
2022/06/05 08:32:46;;;;;;;15.17;13.57;;;21.90;99.90;;;;;;5035580;28;20215;-87
2022/06/05 08:35:13;;;;;;;16.20;14.77;;;22.00;99.90;;;;;;5035609;28;20227;-85
2022/06/05 08:43:36;;;;;;;15.10;13.70;;;21.80;99.90;;;;;;5035864;28;20205;-88
2022/06/05 08:46:10;;;;;;;13.73;12.67;;;22.10;99.90;;;;;;5034998;28;20676;-85
2022/06/05 08:48:49;;;;;;;15.10;13.80;;;21.90;99.90;;;;;;5034992;28;20202;-85
2022/06/05 08:51:29;;;;;;;14.00;12.80;;;21.60;99.90;;;;;;5035488;28;20210;-86
2022/06/05 08:54:04;;;;;;;15.13;13.83;;;21.80;99.90;;;;;;5035029;28;20570;-84
2022/06/05 08:56:38;;;;;;;15.10;13.73;;;21.80;99.90;;;;;;5034997;28;20241;-83
2022/06/05 08:59:13;;;;;;;14.40;13.30;;;21.80;99.90;;;;;;5035137;28;20569;-84
2022/06/05 09:01:47;;;;;;;15.53;14.20;;;21.90;99.90;;;;;;5033994;28;20238;-81
2022/06/05 09:04:38;;;;;;;15.70;14.17;;;22.00;99.90;;;;;;5034438;28;20210;-84
2022/06/05 09:07:10;;;;;;;17.13;15.63;;;22.10;99.90;;;;;;5033821;28;20216;-84
